Elys, Kentucky
Current Conditions -  °F | °C
As of 6:35 PM on Saturday 25 Oct 2014 (Local Time) from K1A6 Reporting Station
Scattered Clouds Scattered Clouds  
Wind Chill: 63°   Ceiling: Unl
Heat Index: 63°   Visibility: 10mi
Dew Point: 53°   Wind: 0mph
Humidity: 71%   Direction: NA
Pressure: 30.01"   Gusts: NA
Location:  36.7964°N, 83.7393°W
Report Text: K1A6 252235Z AUTO 00000KT 10SM SCT036 SCT044 17/12 A3001 RMK AO2 T01730119
Loading
Personal Weather Stations






























Interactive Weather Map
Tropical Storm Tracking
New forecast layout! Learn more

10-Day Weather Forecast

Advertisements
Track Severe Weather on mobile